This is the latest recevied weather packets stored in our database for station/object IW1QLH-13. If no packets are shown the sender has not sent any weather packets the latest 10 day(s).
| Time | Temp. | Humidity | Pressure | Rain* | Wind** | Luminosity | Snow |
|---|---|---|---|---|---|---|---|
| 1777626619 | 20.56° C | 47% | 1016.9 hPa | - | - | 657 W/m² | - |
| 1777625988 | 21.67° C | 49% | 1017 hPa | - | - | 629 W/m² | - |
| 1777625354 | 20.56° C | 57% | 1017 hPa | - | - | 586 W/m² | - |
| 1777624719 | 20° C | 57% | 1017 hPa | - | - | 543 W/m² | - |
| 1777624089 | 21.67° C | 52% | 1016.9 hPa | - | - | 514 W/m² | - |
| 1777623459 | 21.67° C | 51% | 1016.9 hPa | - | - | 471 W/m² | - |
| 1777622826 | 21.67° C | 52% | 1016.9 hPa | - | - | 429 W/m² | - |
| 1777622192 | 20° C | 56% | 1016.7 hPa | - | - | 386 W/m² | - |
| 1777621564 | 20° C | 58% | 1016.7 hPa | - | - | 357 W/m² | - |
| 1777620928 | 20° C | 55% | 1016.6 hPa | - | - | 286 W/m² | - |
| 1777620299 | 20.56° C | 49% | 1016.6 hPa | - | - | 171 W/m² | - |
| 1777619671 | 20.56° C | 50% | 1016.5 hPa | - | - | 228 W/m² | - |
| 1777619041 | 20.56° C | 50% | 1016.5 hPa | - | - | 171 W/m² | - |
| 1777618409 | 20° C | 50% | 1016.4 hPa | - | - | 143 W/m² | - |
| 1777617778 | 20° C | 51% | 1016.5 hPa | - | - | 114 W/m² | - |
| 1777617148 | 20° C | 48% | 1016.6 hPa | - | - | 100 W/m² | - |
| 1777616520 | 20° C | 47% | 1016.4 hPa | - | - | 71 W/m² | - |
| 1777615891 | 18.89° C | 52% | 1016.4 hPa | - | - | 57 W/m² | - |
| 1777615262 | 17.78° C | 54% | 1016.3 hPa | - | - | 42 W/m² | - |
| 1777614632 | 15.56° C | 60% | 1016.3 hPa | - | - | 42 W/m² | - |
| 1777613998 | 13.89° C | 65% | 1016.1 hPa | - | - | 42 W/m² | - |
| 1777613368 | 13.89° C | 66% | 1016.1 hPa | - | - | 42 W/m² | - |
| 1777612740 | 13.89° C | 64% | 1016.1 hPa | - | - | 28 W/m² | - |
| 1777612110 | 13.89° C | 63% | 1015.9 hPa | - | - | 28 W/m² | - |
| 1777611481 | 15° C | 60% | 1015.7 hPa | - | - | 28 W/m² | - |
* Rain since midnight (hover to see other rain measurements)
** Current wind speed in m/s (hover to see current wind gust speed)